Time;durP1;ratioP1;P1;durP2;ratioP2;P2;SDS_P1;SDS_P2;PMS_P1;PMS_P2;Temp;Humidity;BMP_temperature;BMP_pressure;BME280_temperature;BME280_humidity;BME280_pressure;Samples;Min_cycle;Max_cycle;Signal;HPM_P1;HPM_P2
2023/05/12 00:00:02;;;;;;;9.10;8.20;;;;;;;11.68;100.00;99866.44;5095133;28;20211;-66
2023/05/12 00:02:27;;;;;;;11.03;9.00;;;;;;;11.72;100.00;99864.50;5063555;28;20793;-65
2023/05/12 00:04:52;;;;;;;9.90;8.90;;;;;;;11.75;100.00;99861.72;5065193;28;20176;-66
2023/05/12 00:07:17;;;;;;;9.67;8.43;;;;;;;11.74;100.00;99865.22;5092761;28;20649;-67
2023/05/12 00:09:43;;;;;;;9.80;8.80;;;;;;;11.72;100.00;99862.75;5095544;28;20188;-67
2023/05/12 00:12:08;;;;;;;11.40;8.67;;;;;;;11.75;100.00;99861.72;5099960;28;20226;-65
2023/05/12 00:14:34;;;;;;;10.53;9.47;;;;;;;11.78;100.00;99858.94;5095045;28;20192;-65
2023/05/12 00:17:00;;;;;;;9.33;8.50;;;;;;;11.76;100.00;99858.22;5094528;28;20557;-66
2023/05/12 00:19:25;;;;;;;8.90;8.10;;;;;;;11.74;100.00;99860.88;5073139;28;20208;-66
2023/05/12 00:21:50;;;;;;;10.10;9.10;;;;;;;11.76;100.00;99863.38;5079367;28;20237;-65
2023/05/12 00:24:16;;;;;;;9.87;8.87;;;;;;;11.71;100.00;99862.81;5075028;28;20181;-66
2023/05/12 00:26:41;;;;;;;10.07;9.03;;;;;;;11.66;100.00;99863.13;5056278;28;20199;-66
2023/05/12 00:29:06;;;;;;;10.37;9.10;;;;;;;11.64;100.00;99859.81;5090025;28;20635;-66
2023/05/12 00:31:31;;;;;;;10.70;9.60;;;;;;;11.68;100.00;99860.47;5087631;28;20276;-66
2023/05/12 00:33:57;;;;;;;9.80;8.40;;;;;;;11.59;100.00;99856.72;5098402;28;20172;-66
2023/05/12 00:36:22;;;;;;;10.67;9.03;;;;;;;11.60;100.00;99854.03;5075755;28;20253;-67
2023/05/12 00:38:47;;;;;;;9.83;8.83;;;;;;;11.58;100.00;99853.28;5094508;28;20191;-66
2023/05/12 00:41:13;;;;;;;10.93;8.87;;;;;;;11.62;100.00;99854.78;5093172;28;20253;-66
2023/05/12 00:43:38;;;;;;;12.03;9.43;;;;;;;11.63;100.00;99853.00;5100858;28;20234;-66
2023/05/12 00:46:05;;;;;;;10.63;8.60;;;;;;;11.61;100.00;99850.53;5093442;28;20254;-66
2023/05/12 00:48:32;;;;;;;9.07;8.20;;;;;;;11.67;100.00;99845.91;5093342;28;20228;-66
2023/05/12 00:50:59;;;;;;;12.03;9.23;;;;;;;11.69;100.00;99854.38;5090532;28;20577;-67
2023/05/12 00:53:24;;;;;;;9.03;8.13;;;;;;;11.69;100.00;99844.91;5084912;28;20224;-67
2023/05/12 00:55:50;;;;;;;8.83;8.00;;;;;;;11.67;100.00;99851.06;5089826;28;20173;-66
2023/05/12 00:58:15;;;;;;;9.63;8.67;;;;;;;11.65;100.00;99843.44;5084621;28;20179;-66
2023/05/12 01:00:40;;;;;;;9.60;8.60;;;;;;;11.59;100.00;99842.06;5088189;28;20230;-65
2023/05/12 01:03:06;;;;;;;10.37;8.73;;;;;;;11.53;100.00;99846.78;5104776;28;20537;-66
2023/05/12 01:05:57;;;;;;;8.63;7.83;;;;;;;11.42;100.00;99850.88;5093077;28;20286;-66
2023/05/12 01:08:23;;;;;;;9.93;7.47;;;;;;;11.51;100.00;99846.91;5101297;28;20184;-66
2023/05/12 01:10:49;;;;;;;9.30;8.40;;;;;;;11.57;100.00;99846.50;5082529;28;20235;-66
2023/05/12 01:13:14;;;;;;;8.80;8.00;;;;;;;11.57;100.00;99841.38;5094101;28;20215;-66
2023/05/12 01:15:46;;;;;;;8.33;7.47;;;;;;;11.52;100.00;99845.94;5093292;28;20184;-66
2023/05/12 01:18:13;;;;;;;8.53;7.70;;;;;;;11.50;100.00;99845.25;5074684;28;20187;-66
2023/05/12 01:20:41;;;;;;;9.67;8.77;;;;;;;11.50;100.00;99841.81;5088037;28;20250;-66
2023/05/12 01:23:07;;;;;;;9.00;8.10;;;;;;;11.50;100.00;99841.81;5104044;28;20220;-66
2023/05/12 01:25:33;;;;;;;9.77;8.87;;;;;;;11.47;100.00;99840.25;5093155;28;20502;-65
2023/05/12 01:27:59;;;;;;;9.47;8.53;;;;;;;11.48;100.00;99838.53;5074883;28;20270;-65
2023/05/12 01:30:25;;;;;;;10.03;8.83;;;;;;;11.43;100.00;99838.81;5083066;28;20341;-66
2023/05/12 01:32:51;;;;;;;10.97;9.07;;;;;;;11.41;100.00;99846.63;5105893;28;20184;-65
2023/05/12 01:35:16;;;;;;;10.87;9.77;;;;;;;11.40;100.00;99850.13;5092763;28;20320;-65
2023/05/12 01:37:41;;;;;;;15.60;9.97;;;;;;;11.42;100.00;99847.44;5093398;28;20206;-65
2023/05/12 01:40:07;;;;;;;11.17;9.63;;;;;;;11.42;100.00;99845.72;5080251;28;20195;-66
2023/05/12 01:42:32;;;;;;;10.13;9.13;;;;;;;11.40;100.00;99850.13;5097513;28;20222;-65
2023/05/12 01:44:57;;;;;;;12.17;10.00;;;;;;;11.38;100.00;99843.44;5092674;28;20520;-65
2023/05/12 01:47:23;;;;;;;11.50;10.03;;;;;;;11.39;100.00;99847.66;5092870;28;20230;-65
2023/05/12 01:49:48;;;;;;;11.00;9.73;;;;;;;11.34;100.00;99844.50;5093117;28;21650;-66
2023/05/12 01:52:13;;;;;;;12.53;10.03;;;;;;;11.36;100.00;99851.25;5095423;28;20301;-66
2023/05/12 01:54:38;;;;;;;11.43;10.00;;;;;;;11.34;100.00;99854.81;5092930;28;20195;-65
2023/05/12 01:57:04;;;;;;;13.00;10.30;;;;;;;11.35;100.00;99851.31;5086717;28;20203;-66
2023/05/12 01:59:30;;;;;;;11.10;9.43;;;;;;;11.32;100.00;99854.91;5085246;28;20233;-65
2023/05/12 02:01:55;;;;;;;11.00;9.87;;;;;;;11.35;100.00;99859.91;5076336;28;20231;-65
2023/05/12 02:04:20;;;;;;;11.23;9.97;;;;;;;11.32;100.00;99849.78;5072227;28;20176;-65
2023/05/12 02:06:46;;;;;;;11.43;9.83;;;;;;;11.35;100.00;99857.31;5101252;28;20203;-65
2023/05/12 02:09:11;;;;;;;13.60;9.97;;;;;;;11.33;100.00;99859.16;5089062;28;20263;-66
2023/05/12 02:11:37;;;;;;;18.70;10.63;;;;;;;11.38;100.00;99861.44;5079349;28;20219;-66
2023/05/12 02:14:02;;;;;;;12.13;10.83;;;;;;;11.37;100.00;99858.03;5095778;28;20266;-66
2023/05/12 02:16:27;;;;;;;12.03;10.43;;;;;;;11.35;100.00;99861.63;5091985;28;20270;-66
2023/05/12 02:18:52;;;;;;;14.07;11.37;;;;;;;11.36;100.00;99863.28;5092736;28;20180;-66
2023/05/12 02:21:18;;;;;;;13.13;11.13;;;;;;;11.32;100.00;99860.06;5055088;28;20301;-66
2023/05/12 02:23:43;;;;;;;14.87;11.03;;;;;;;11.35;100.00;99864.19;5098527;28;20658;-66
2023/05/12 02:26:08;;;;;;;13.47;11.03;;;;;;;11.33;100.00;99864.31;5091426;28;20253;-66
2023/05/12 02:28:33;;;;;;;16.47;12.03;;;;;;;11.26;100.00;99857.88;5092417;28;20339;-66
2023/05/12 02:30:59;;;;;;;14.27;12.13;;;;;;;11.20;100.00;99860.81;5088916;28;20227;-66
2023/05/12 02:33:25;;;;;;;15.93;12.30;;;;;;;10.97;100.00;99865.63;5079804;28;20204;-66
2023/05/12 02:35:51;;;;;;;19.20;14.30;;;;;;;10.89;100.00;99875.53;5085974;28;20202;-65
2023/05/12 02:38:16;;;;;;;16.50;13.43;;;;;;;10.78;100.00;99863.31;5070721;28;20636;-65
2023/05/12 02:40:41;;;;;;;16.30;12.43;;;;;;;10.84;100.00;99873.25;5080769;28;20284;-65
2023/05/12 02:43:07;;;;;;;16.37;13.93;;;;;;;10.88;100.00;99876.44;5081865;28;20165;-65
2023/05/12 02:45:32;;;;;;;17.47;13.80;;;;;;;10.88;100.00;99871.31;5063773;28;20269;-65
2023/05/12 02:47:58;;;;;;;19.13;14.53;;;;;;;10.80;100.00;99872.59;5081186;28;20531;-65
2023/05/12 02:50:23;;;;;;;18.23;14.00;;;;;;;10.94;100.00;99871.78;5059814;28;20227;-65
2023/05/12 02:52:48;;;;;;;20.50;15.17;;;;;;;11.03;100.00;99875.56;5105011;28;20658;-66
2023/05/12 02:55:14;;;;;;;18.67;14.53;;;;;;;11.01;100.00;99866.25;5091451;28;20267;-66
2023/05/12 02:57:39;;;;;;;20.43;14.30;;;;;;;11.05;100.00;99868.56;5077024;28;20182;-65
2023/05/12 03:00:05;;;;;;;17.90;13.90;;;;;;;11.03;100.00;99865.25;5073670;28;20304;-64
2023/05/12 03:02:35;;;;;;;17.57;14.67;;;;;;;11.10;100.00;99870.84;5106493;28;20550;-65
2023/05/12 03:05:01;;;;;;;18.97;13.90;;;;;;;11.23;100.00;99876.09;5091364;28;20187;-65
2023/05/12 03:07:27;;;;;;;16.37;14.00;;;;;;;11.32;100.00;99872.94;5091431;28;20183;-65
2023/05/12 03:09:52;;;;;;;19.00;14.70;;;;;;;11.28;100.00;99872.31;5091041;28;20187;-65
2023/05/12 03:12:17;;;;;;;18.53;13.20;;;;;;;11.35;100.00;99877.91;5080319;28;20305;-65
2023/05/12 03:14:42;;;;;;;16.60;13.60;;;;;;;11.44;100.00;99874.75;5090204;28;20198;-65
2023/05/12 03:17:08;;;;;;;17.27;13.40;;;;;;;11.49;100.00;99878.81;5084612;28;20227;-65
2023/05/12 03:19:33;;;;;;;17.80;14.70;;;;;;;11.45;100.00;99876.44;5089443;28;20537;-66
2023/05/12 03:22:00;;;;;;;17.13;13.87;;;;;;;11.45;100.00;99876.44;5096078;28;20226;-66
2023/05/12 03:24:25;;;;;;;17.03;12.90;;;;;;;11.42;100.00;99875.78;5073511;28;20173;-65
2023/05/12 03:26:50;;;;;;;17.17;13.13;;;;;;;11.40;100.00;99873.31;5091064;28;20646;-65
2023/05/12 03:29:16;;;;;;;15.27;12.93;;;;;;;11.37;100.00;99873.47;5091264;28;20263;-65
2023/05/12 03:31:41;;;;;;;16.57;13.30;;;;;;;11.39;100.00;99870.84;5052944;28;20630;-66
2023/05/12 03:34:06;;;;;;;17.97;13.27;;;;;;;11.42;100.00;99881.78;5090686;28;20184;-66
2023/05/12 03:36:31;;;;;;;15.27;13.00;;;;;;;11.34;100.00;99883.16;5090914;28;20192;-65
2023/05/12 03:38:57;;;;;;;16.53;13.77;;;;;;;11.21;100.00;99883.91;5090067;28;20576;-66
2023/05/12 03:41:22;;;;;;;17.87;14.07;;;;;;;11.22;100.00;99882.97;5091352;28;20223;-65
2023/05/12 03:43:47;;;;;;;17.30;14.40;;;;;;;11.13;100.00;99880.97;5096361;28;20180;-65
2023/05/12 03:46:13;;;;;;;19.33;15.17;;;;;;;11.10;100.00;99891.44;5090618;28;20601;-66
2023/05/12 03:48:38;;;;;;;21.57;16.10;;;;;;;11.10;100.00;99884.56;5089998;28;20175;-65
2023/05/12 03:51:03;;;;;;;21.10;15.23;;;;;;;11.22;100.00;99885.53;5088923;28;20219;-66
2023/05/12 03:53:29;;;;;;;22.33;17.53;;;;;;;11.33;100.00;99887.47;5099022;28;20184;-66
2023/05/12 03:55:54;;;;;;;23.53;17.17;;;;;;;11.33;100.00;99890.06;5085883;28;20173;-65
2023/05/12 03:58:22;;;;;;;19.40;16.13;;;;;;;11.39;100.00;99889.69;5082580;28;20202;-67
2023/05/12 04:00:48;;;;;;;20.70;15.20;;;;;;;11.42;100.00;99878.34;5085889;28;20602;-67
2023/05/12 04:03:14;;;;;;;20.73;15.77;;;;;;;11.45;100.00;99878.19;5100839;28;20237;-66
2023/05/12 04:05:41;;;;;;;21.17;16.80;;;;;;;11.51;100.00;99885.53;5089369;28;20266;-66
2023/05/12 04:08:09;;;;;;;23.20;17.43;;;;;;;11.39;100.00;99881.13;5090847;28;20180;-66
2023/05/12 04:10:41;;;;;;;25.37;16.70;;;;;;;11.37;100.00;99888.13;5076257;28;20670;-66
2023/05/12 04:13:07;;;;;;;26.73;20.07;;;;;;;11.32;100.00;99885.00;5101552;28;20200;-65
2023/05/12 04:15:35;;;;;;;25.63;18.17;;;;;;;11.26;100.00;99893.91;5089338;28;20180;-65
2023/05/12 04:18:02;;;;;;;28.73;19.03;;;;;;;11.37;100.00;99888.13;5090848;28;20179;-65
2023/05/12 04:20:27;;;;;;;32.20;19.97;;;;;;;11.39;100.00;99889.69;5079834;28;20223;-64
2023/05/12 04:22:52;;;;;;;31.50;21.20;;;;;;;11.41;100.00;99887.84;5104542;28;20234;-65
2023/05/12 04:25:17;;;;;;;34.87;20.93;;;;;;;11.34;100.00;99896.03;5093995;28;20258;-65
2023/05/12 04:27:43;;;;;;;30.47;19.87;;;;;;;11.30;100.00;99891.06;5094611;28;20177;-65
2023/05/12 04:30:08;;;;;;;34.90;22.97;;;;;;;11.23;100.00;99905.22;5084433;28;20188;-65
2023/05/12 04:32:33;;;;;;;32.43;21.13;;;;;;;11.20;100.00;99902.00;5109623;28;20184;-65
2023/05/12 04:34:59;;;;;;;29.50;19.67;;;;;;;11.28;100.00;99902.38;5094137;28;20597;-68
2023/05/12 04:37:25;;;;;;;33.53;21.27;;;;;;;11.21;100.00;99895.94;5094698;28;20190;-66
2023/05/12 04:39:50;;;;;;;24.03;16.33;;;;;;;11.10;100.00;99904.31;5094304;28;20255;-66
2023/05/12 04:42:15;;;;;;;16.80;12.30;;;;;;;10.93;100.00;99901.00;5099781;28;20679;-66
2023/05/12 04:44:40;;;;;;;13.97;9.40;;;;;;;10.81;100.00;99910.25;5093007;28;20234;-66
2023/05/12 04:47:06;;;;;;;18.33;10.60;;;;;;;10.78;100.00;99907.88;5093881;28;20198;-65
2023/05/12 04:49:31;;;;;;;16.10;11.00;;;;;;;10.80;100.00;99910.34;5075875;28;20187;-65
2023/05/12 04:51:56;;;;;;;20.67;11.73;;;;;;;10.87;100.00;99916.00;5096739;28;20219;-65
2023/05/12 04:54:22;;;;;;;13.57;8.70;;;;;;;10.89;100.00;99916.72;5075502;28;20184;-66
2023/05/12 04:56:47;;;;;;;9.07;6.03;;;;;;;10.72;100.00;99923.69;5081451;28;20192;-65
2023/05/12 04:59:16;;;;;;;5.13;3.60;;;;;;;10.60;100.00;99921.81;5108463;28;20183;-65
2023/05/12 05:01:41;;;;;;;6.47;4.03;;;;;;;10.58;100.00;99927.03;5096473;28;20681;-66
2023/05/12 05:04:07;;;;;;;6.57;3.97;;;;;;;10.70;100.00;99933.22;5096728;28;20176;-66
2023/05/12 05:06:32;;;;;;;7.50;3.37;;;;;;;10.72;100.00;99931.41;5093533;28;20204;-66
2023/05/12 05:08:58;;;;;;;6.90;3.13;;;;;;;10.71;100.00;99934.06;5075660;28;20176;-66
2023/05/12 05:11:23;;;;;;;4.60;2.50;;;;;;;10.64;100.00;99931.84;5075962;28;20272;-66
2023/05/12 05:13:48;;;;;;;5.97;3.13;;;;;;;10.79;100.00;99934.44;5099020;28;20172;-67
2023/05/12 05:16:14;;;;;;;5.97;3.50;;;;;;;10.80;100.00;99928.38;5093291;28;20264;-67
2023/05/12 05:18:44;;;;;;;7.10;2.60;;;;;;;10.88;100.00;99926.19;5093715;28;20255;-66
2023/05/12 05:21:09;;;;;;;5.90;3.20;;;;;;;10.91;100.00;99932.91;5071071;28;20318;-67
2023/05/12 05:23:35;;;;;;;6.03;2.77;;;;;;;10.94;100.00;99933.53;5099979;28;20321;-67
2023/05/12 05:26:00;;;;;;;11.70;3.00;;;;;;;11.13;100.00;99950.47;5092701;28;20195;-68
2023/05/12 05:28:25;;;;;;;14.77;3.03;;;;;;;11.20;100.00;99949.19;5094004;28;20259;-67
2023/05/12 05:30:51;;;;;;;7.53;3.40;;;;;;;11.32;100.00;99952.78;5089163;28;20284;-68
2023/05/12 05:33:16;;;;;;;5.27;3.13;;;;;;;11.29;100.00;99951.22;5102146;28;20188;-68
2023/05/12 05:35:42;;;;;;;7.03;3.90;;;;;;;11.42;100.00;99948.75;5091581;28;20180;-68
2023/05/12 05:38:07;;;;;;;7.73;3.83;;;;;;;11.56;100.00;99949.63;5092917;28;20237;-68
2023/05/12 05:40:32;;;;;;;5.40;3.90;;;;;;;11.54;100.00;99952.31;5086734;28;20229;-67
2023/05/12 05:42:57;;;;;;;5.93;3.93;;;;;;;11.81;100.00;99953.28;5105074;28;20591;-67
2023/05/12 05:45:23;;;;;;;5.00;4.40;;;;;;;11.87;100.00;99953.75;5092806;28;20200;-66
2023/05/12 05:47:50;;;;;;;5.97;5.33;;;;;;;11.78;100.00;99956.88;5093026;28;20635;-66
2023/05/12 05:50:15;;;;;;;7.27;6.57;;;;;;;11.72;100.00;99957.25;5084245;28;20329;-66
2023/05/12 05:52:41;;;;;;;8.00;6.80;;;;;;;11.73;100.00;99959.75;5106935;28;20286;-66
2023/05/12 05:55:06;;;;;;;8.20;6.77;;;;;;;11.72;100.00;99960.66;5089472;28;20268;-65
2023/05/12 05:57:32;;;;;;;8.37;7.57;;;;;;;11.65;100.00;99961.97;5077654;28;20586;-66
2023/05/12 05:59:57;;;;;;;8.67;7.90;;;;;;;11.55;100.00;99969.41;5092858;28;20282;-65
2023/05/12 06:02:22;;;;;;;9.13;8.20;;;;;;;11.51;100.00;99965.38;5098119;28;20216;-66
2023/05/12 06:04:48;;;;;;;10.43;9.23;;;;;;;11.59;100.00;99973.47;5093026;28;20176;-66
2023/05/12 06:07:14;;;;;;;9.70;8.70;;;;;;;11.48;100.00;99977.63;5070661;28;20227;-65
2023/05/12 06:09:39;;;;;;;10.47;9.47;;;;;;;11.44;100.00;99972.63;5084174;28;20180;-65
2023/05/12 06:12:05;;;;;;;10.87;9.87;;;;;;;11.38;100.00;99978.16;5097242;28;20252;-64
2023/05/12 06:14:30;;;;;;;11.77;10.67;;;;;;;11.37;100.00;99976.50;5092881;28;20215;-64
2023/05/12 06:16:55;;;;;;;11.80;10.80;;;;;;;11.35;100.00;99982.66;5091708;28;20187;-65
2023/05/12 06:19:21;;;;;;;12.83;10.37;;;;;;;11.50;100.00;99989.47;5091040;28;20187;-64
2023/05/12 06:21:46;;;;;;;11.57;10.50;;;;;;;11.49;100.00;99994.72;5095082;28;20256;-64
2023/05/12 06:24:11;;;;;;;11.20;10.20;;;;;;;11.45;100.00;99996.66;5074997;28;20180;-65
2023/05/12 06:26:36;;;;;;;10.97;9.97;;;;;;;11.51;100.00;100001.44;5073432;28;20288;-65
2023/05/12 06:29:05;;;;;;;12.20;9.77;;;;;;;11.50;100.00;99993.78;5092584;28;20183;-65
2023/05/12 06:31:30;;;;;;;11.23;10.23;;;;;;;11.53;100.00;99989.28;5084636;28;20281;-64
2023/05/12 06:33:56;;;;;;;13.73;9.70;;;;;;;11.71;100.00;99994.25;5096313;28;20172;-64
2023/05/12 06:36:21;;;;;;;10.70;9.63;;;;;;;11.80;100.00;99998.84;5091653;28;20196;-64
2023/05/12 06:38:46;;;;;;;13.70;11.30;;;;;;;11.93;100.00;99998.91;5092034;28;20239;-64
2023/05/12 06:41:12;;;;;;;11.17;10.10;;;;;;;11.85;100.00;99989.06;5082403;28;20227;-65
2023/05/12 06:43:37;;;;;;;10.50;9.60;;;;;;;12.01;100.00;99993.31;5098149;28;20188;-64
2023/05/12 06:46:02;;;;;;;10.47;9.47;;;;;;;12.03;100.00;99997.47;5087862;28;20581;-65
2023/05/12 06:48:27;;;;;;;12.07;10.93;;;;;;;12.04;100.00;99995.69;5091853;28;20204;-65
2023/05/12 06:50:53;;;;;;;10.90;10.00;;;;;;;12.13;100.00;99994.28;5080804;28;20561;-65
2023/05/12 06:53:18;;;;;;;10.63;9.53;;;;;;;12.04;100.00;100003.44;5099908;28;20180;-65
2023/05/12 06:55:45;;;;;;;9.67;8.43;;;;;;;11.93;100.00;100004.06;5088048;28;20187;-66
2023/05/12 06:58:10;;;;;;;9.10;8.20;;;;;;;11.76;100.00;100002.53;5081699;28;20172;-64
2023/05/12 07:00:35;;;;;;;8.30;7.67;;;;;;;11.81;100.00;100009.97;5052389;28;20658;-67
2023/05/12 07:03:01;;;;;;;9.43;7.87;;;;;;;12.06;100.00;100012.72;5099644;28;20176;-62
2023/05/12 07:05:26;;;;;;;8.70;7.57;;;;;;;12.14;100.00;100001.13;5091107;28;20200;-69
2023/05/12 07:07:51;;;;;;;8.13;7.43;;;;;;;12.40;100.00;100010.63;5091482;28;20176;-67
2023/05/12 07:10:17;;;;;;;8.07;7.27;;;;;;;12.42;100.00;100001.00;5080587;28;20175;-69
2023/05/12 07:12:42;;;;;;;7.53;6.80;;;;;;;12.49;100.00;100009.19;5076018;28;20208;-68
2023/05/12 07:15:08;;;;;;;9.17;7.63;;;;;;;12.61;100.00;100007.56;5066542;28;20211;-67
2023/05/12 07:17:33;;;;;;;9.13;8.33;;;;;;;12.80;100.00;100003.78;5088910;28;20184;-68
2023/05/12 07:19:59;;;;;;;8.67;7.33;;;;;;;12.93;100.00;100001.25;5081092;28;20561;-67
2023/05/12 07:22:24;;;;;;;8.47;7.50;;;;;;;12.98;100.00;100012.91;5072114;28;20619;-67
2023/05/12 07:24:49;;;;;;;8.53;7.83;;;;;;;13.01;100.00;99999.81;5081041;28;20176;-66
2023/05/12 07:27:15;;;;;;;8.07;7.23;;;;;;;12.99;100.00;100006.00;5073738;28;20296;-67
2023/05/12 07:29:40;;;;;;;8.70;6.70;;;;;;;12.78;100.00;100006.47;5086882;28;20215;-67
2023/05/12 07:32:06;;;;;;;11.60;7.60;;;;;;;12.96;100.00;100007.03;5073869;28;20235;-66
2023/05/12 07:34:32;;;;;;;7.83;6.63;;;;;;;13.01;100.00;100004.97;5088821;28;20200;-68
2023/05/12 07:37:01;;;;;;;7.20;6.50;;;;;;;13.41;100.00;100009.25;5061767;28;20279;-67
2023/05/12 07:39:27;;;;;;;7.30;6.60;;;;;;;13.47;100.00;100001.09;5079725;28;20176;-68
2023/05/12 07:41:53;;;;;;;7.73;6.73;;;;;;;13.64;100.00;100007.66;5089355;28;20292;-68
2023/05/12 07:44:19;;;;;;;7.07;6.20;;;;;;;13.94;100.00;100003.91;5083106;28;20238;-69
2023/05/12 07:46:45;;;;;;;6.80;6.10;;;;;;;13.93;100.00;100001.41;5073435;28;20568;-69
2023/05/12 07:49:10;;;;;;;6.20;5.37;;;;;;;14.08;100.00;99999.50;5072430;28;20181;-67
2023/05/12 07:51:36;;;;;;;6.00;5.00;;;;;;;14.22;100.00;99998.53;5074340;28;20219;-67
2023/05/12 07:54:01;;;;;;;5.60;5.10;;;;;;;14.31;100.00;100003.03;5083837;28;20628;-66
2023/05/12 07:56:26;;;;;;;5.87;5.03;;;;;;;13.91;100.00;100000.69;5078317;28;20192;-69
2023/05/12 07:58:52;;;;;;;6.50;4.93;;;;;;;13.47;100.00;100003.66;5090276;28;20246;-68
2023/05/12 08:01:17;;;;;;;5.33;4.83;;;;;;;13.52;100.00;100013.66;5093868;28;20571;-68
2023/05/12 08:03:42;;;;;;;5.90;5.40;;;;;;;13.57;100.00;100009.03;5095427;28;20180;-68
2023/05/12 08:06:07;;;;;;;5.37;4.87;;;;;;;13.66;100.00;100005.81;5094151;28;20196;-69
2023/05/12 08:08:33;;;;;;;6.00;5.40;;;;;;;13.48;100.00;100012.25;5094326;28;20237;-68
2023/05/12 08:10:59;;;;;;;5.97;5.47;;;;;;;13.10;100.00;100007.84;5056060;28;20638;-68
2023/05/12 08:13:25;;;;;;;6.27;5.57;;;;;;;13.14;100.00;100019.66;5074326;28;20615;-67
2023/05/12 08:15:51;;;;;;;7.57;6.13;;;;;;;12.85;100.00;100015.47;5094570;28;20195;-69
2023/05/12 08:18:16;;;;;;;6.33;5.73;;;;;;;12.67;100.00;100014.91;5094789;28;20172;-68
2023/05/12 08:20:41;;;;;;;6.60;5.60;;;;;;;12.61;100.00;100027.41;5068917;28;20657;-68
2023/05/12 08:23:07;;;;;;;5.30;4.87;;;;;;;12.64;100.00;100025.44;5087758;28;20227;-69
2023/05/12 08:25:33;;;;;;;7.27;5.63;;;;;;;12.58;100.00;100031.00;5094452;28;20210;-69
2023/05/12 08:27:59;;;;;;;5.90;5.40;;;;;;;12.83;100.00;100025.06;5076941;28;20172;-68
2023/05/12 08:30:25;;;;;;;6.03;5.53;;;;;;;12.81;100.00;100023.53;5077834;28;20222;-69
2023/05/12 08:32:51;;;;;;;5.60;5.10;;;;;;;12.86;100.00;100024.03;5090316;28;20538;-68
2023/05/12 08:35:16;;;;;;;6.10;5.03;;;;;;;12.86;100.00;100024.88;5093928;28;20551;-68
2023/05/12 08:37:42;;;;;;;5.30;4.80;;;;;;;12.74;100.00;100029.09;5094760;28;20191;-67
2023/05/12 08:40:19;;;;;;;6.53;4.97;;;;;;;12.88;100.00;100028.19;5084484;28;20180;-68
2023/05/12 08:42:54;;;;;;;7.03;5.77;;;;;;;13.13;100.00;100029.16;5108067;28;20179;-69
2023/05/12 08:45:21;;;;;;;6.97;6.03;;;;;;;13.50;100.00;100033.66;5093506;28;20227;-69
2023/05/12 08:47:48;;;;;;;5.57;5.07;;;;;;;13.48;100.00;100026.00;5094456;28;20168;-68
2023/05/12 08:50:17;;;;;;;5.43;5.00;;;;;;;13.85;100.00;100031.22;5064892;28;20189;-69
2023/05/12 08:52:43;;;;;;;5.90;5.20;;;;;;;14.23;100.00;100031.19;5095506;28;20195;-68
2023/05/12 08:55:08;;;;;;;5.93;4.80;;;;;;;14.03;100.00;100025.69;5072281;28;20647;-69
2023/05/12 08:57:35;;;;;;;5.30;4.80;;;;;;;14.00;100.00;100026.75;5079766;28;20294;-69
2023/05/12 09:00:02;;;;;;;7.07;5.17;;;;;;;14.17;100.00;100025.53;5093932;28;20182;-69
2023/05/12 09:02:27;;;;;;;5.43;4.93;;;;;;;14.35;100.00;100026.00;5062703;28;20297;-68
2023/05/12 09:04:55;;;;;;;5.20;4.80;;;;;;;14.37;100.00;100020.72;5084789;28;20566;-67
2023/05/12 09:07:25;;;;;;;6.23;4.60;;;;;;;14.34;100.00;100014.00;5089514;28;20204;-70
2023/05/12 09:09:55;;;;;;;6.80;4.63;;;;;;;14.39;100.00;100025.75;5093364;28;20266;-68
2023/05/12 09:12:21;;;;;;;5.00;4.60;;;;;;;14.77;100.00;100015.28;5078071;28;20231;-69
2023/05/12 09:14:59;;;;;;;4.37;3.97;;;;;;;14.68;100.00;100016.75;5087067;28;20180;-69
2023/05/12 09:17:24;;;;;;;4.47;4.17;;;;;;;15.03;100.00;100012.50;5063790;28;20591;-70
2023/05/12 09:19:50;;;;;;;5.93;4.23;;;;;;;15.32;100.00;100010.31;5089248;28;20172;-69
2023/05/12 09:22:17;;;;;;;5.40;3.97;;;;;;;15.68;100.00;100011.94;5096752;28;21017;-68
2023/05/12 09:24:43;;;;;;;4.70;4.30;;;;;;;15.86;100.00;100012.31;5087875;28;20309;-68
2023/05/12 09:27:08;;;;;;;5.03;4.37;;;;;;;16.26;100.00;100004.81;5093144;28;20307;-68
2023/05/12 09:29:33;;;;;;;6.27;4.57;;;;;;;16.80;100.00;100004.81;5091937;28;20329;-69
2023/05/12 09:32:01;;;;;;;4.67;3.67;;;;;;;16.97;100.00;100007.81;5097676;28;20258;-69
2023/05/12 09:34:31;;;;;;;5.30;4.67;;;;;;;17.05;100.00;100006.22;5073413;28;20263;-70
2023/05/12 09:37:05;;;;;;;6.20;4.33;;;;;;;16.69;100.00;100007.47;5087416;28;20548;-68
2023/05/12 09:39:30;;;;;;;4.93;3.73;;;;;;;16.38;100.00;100005.59;5077873;28;20180;-69
2023/05/12 09:41:56;;;;;;;4.17;3.60;;;;;;;16.30;100.00;100005.41;5086755;28;20223;-66
2023/05/12 09:44:22;;;;;;;8.77;4.53;;;;;;;16.28;100.00;100005.50;5092470;28;20195;-77
2023/05/12 09:46:48;;;;;;;4.10;3.80;;;;;;;16.80;100.00;100001.41;5063030;28;20288;-65
2023/05/12 09:49:19;;;;;;;5.33;3.90;;;;;;;16.81;100.00;100006.47;5087808;28;20279;-64
2023/05/12 09:51:44;;;;;;;4.93;4.27;;;;;;;17.03;100.00;100004.72;5077316;28;20638;-71
2023/05/12 09:54:09;;;;;;;6.20;4.00;;;;;;;17.77;100.00;100008.88;5091761;28;20225;-66
2023/05/12 09:56:36;;;;;;;6.27;3.27;;;;;;;20.12;100.00;100005.09;5081155;28;20664;-78
2023/05/12 09:59:04;;;;;;;4.00;3.70;;;;;;;19.90;100.00;100001.91;5068152;28;20173;-76
2023/05/12 10:01:29;;;;;;;6.53;3.70;;;;;;;18.71;100.00;100005.81;5084757;28;20219;-75
2023/05/12 10:03:57;;;;;;;4.10;3.63;;;;;;;18.17;100.00;100002.81;5072890;28;20173;-75
2023/05/12 10:06:28;;;;;;;4.10;3.50;;;;;;;17.71;100.00;100012.00;5074201;28;20204;-72
2023/05/12 10:09:00;;;;;;;3.73;3.40;;;;;;;17.35;100.00;100004.63;5071090;28;20271;-72
2023/05/12 10:11:28;;;;;;;6.43;3.67;;;;;;;16.96;100.00;99999.22;5074742;28;20246;-65
2023/05/12 10:13:53;;;;;;;5.37;3.47;;;;;;;16.44;100.00;99999.09;5074824;28;20184;-67
2023/05/12 10:16:20;;;;;;;4.30;3.90;;;;;;;15.92;100.00;100002.28;5082779;28;20529;-69
2023/05/12 10:18:46;;;;;;;4.07;3.67;;;;;;;15.36;100.00;100000.53;5072778;28;20603;-71
2023/05/12 10:21:12;;;;;;;3.60;3.30;;;;;;;15.07;100.00;99997.53;5095510;27;20282;-70
2023/05/12 10:23:40;;;;;;;7.27;3.90;;;;;;;15.00;100.00;100007.56;5099140;28;20180;-70
2023/05/12 10:26:07;;;;;;;5.20;3.83;;;;;;;14.60;100.00;100007.84;5079037;28;20205;-71
2023/05/12 10:28:33;;;;;;;3.93;3.40;;;;;;;14.33;100.00;100009.75;5090564;28;20353;-69
2023/05/12 10:30:59;;;;;;;5.47;4.87;;;;;;;14.11;100.00;100012.22;5089214;28;20389;-69
2023/05/12 10:33:25;;;;;;;4.63;4.20;;;;;;;14.17;100.00;100020.38;5100740;28;20196;-70
2023/05/12 10:35:51;;;;;;;4.70;4.30;;;;;;;14.28;100.00;100013.63;5091816;28;20253;-71
2023/05/12 10:38:20;;;;;;;5.40;4.23;;;;;;;14.20;100.00;100014.97;5092001;28;20176;-71
2023/05/12 10:40:57;;;;;;;5.13;4.63;;;;;;;14.19;100.00;100015.91;5087183;28;20234;-71
2023/05/12 10:43:23;;;;;;;5.93;4.73;;;;;;;14.10;100.00;100024.31;5079978;28;20581;-70
2023/05/12 10:46:18;;;;;;;5.07;4.57;;;;;;;13.83;100.00;100021.91;5064568;28;20209;-70
2023/05/12 10:49:03;;;;;;;5.90;4.83;;;;;;;13.64;100.00;100019.78;5086772;28;20246;-69
2023/05/12 10:51:30;;;;;;;5.57;4.77;;;;;;;13.60;100.00;100029.50;5092894;28;20254;-70
2023/05/12 10:54:06;;;;;;;5.30;4.90;;;;;;;13.50;100.00;100020.72;5096079;28;20378;-69
2023/05/12 10:56:38;;;;;;;6.13;4.83;;;;;;;13.50;100.00;100021.53;5080583;28;20176;-69
2023/05/12 10:59:18;;;;;;;5.07;4.63;;;;;;;13.59;100.00;100021.84;5087726;28;20259;-70
2023/05/12 11:02:01;;;;;;;7.33;4.70;;;;;;;13.55;100.00;100023.81;5084034;28;20223;-69
2023/05/12 11:04:51;;;;;;;6.00;4.93;;;;;;;13.21;100.00;100034.63;5079618;28;20199;-68
2023/05/12 11:07:22;;;;;;;12.53;5.60;;;;;;;13.21;100.00;100023.50;5091240;28;20673;-68
2023/05/12 11:09:48;;;;;;;6.03;5.43;;;;;;;13.34;100.00;100019.13;5091673;28;20199;-68
2023/05/12 11:12:13;;;;;;;6.10;5.53;;;;;;;13.55;100.00;100028.97;5096978;28;20313;-68